Impacts TAF Board
For situational awareness. Not to be used for flight planning purposes.
IDs:

KLAX - Los Angeles Intl, CA, US

Issued at 1738 UTC 23 Sep 2018
Updated at 1936 UTC 23 Sep 2018
Potential Impact None Slight Moderate High
Time1853Z 23/20Z 23/21Z 23/22Z 23/23Z 24/00Z 24/01Z 24/02Z 24/03Z 24/04Z 24/05Z 24/06Z 24/07Z 24/08Z>>
Type OBS PRVL PRVL PRVL PRVL PRVL PRVL PRVL PRVL PRVL PRVL PRVL PRVL PRVL
VIS 10 >6 >6 >6 >6 >6 >6 >6 >6 >6 >6 >6 >6 >6
CIG -- -- -- -- -- -- -- -- -- -- -- -- 10 10
Cover FEW SKC SKC SKC SKC SKC SKC SKC SKC SKC SKC SKC OVC OVC
FltCat VFR VFR VFR VFR VFR VFR VFR VFR VFR VFR VFR VFR MVFR MVFR
WX -- -- -- -- -- -- -- -- -- -- -- -- -- --
WDir 250 270 270 270 270 270 270 240 240 240 240 240 VRB VRB
WSpd 7 14 14 14 14 14 14 8 8 8 8 8 3 3
WGst -- -- -- -- -- -- -- -- -- -- -- -- -- --
Raw TAF
KLAX 231738Z 2318/2424 25009KT P6SM SCT013 SCT140
  FM231900 27014KT P6SM SKC
  FM240200 24008KT P6SM SKC
  FM240700 VRB03KT P6SM OVC010
  FM241700 VRB03KT P6SM SCT015
  FM241900 27014KT P6SM SKC


Raw METAR
KLAX 231853Z 25007KT 10SM FEW013 FEW095 22/16 A2992 RMK AO2 SLP131 T02220161 $
KLAX 231753Z 26007KT 10SM SCT016 22/16 A2994 RMK AO2 SLP136 T02170156 10217 20183 51010 $
KLAX 231653Z 26009KT 10SM SCT015 SCT140 21/16 A2993 RMK AO2 SLP135 T02110161 $

METAR Board
Radar Display
Forecast Discussion
For situational awareness. Not to be used for flight planning purposes.